createdAt,value
2022-12-14T00:00:14.978Z,49.97
2022-12-14T00:04:36.850Z,54.72
2022-12-14T00:08:41.882Z,51.22
2022-12-14T00:12:43.862Z,49.40
2022-12-14T00:16:45.810Z,55.47
2022-12-14T00:20:47.882Z,53.88
2022-12-14T00:24:49.649Z,55.22
2022-12-14T00:28:53.925Z,57.08
2022-12-14T00:32:55.610Z,51.42
2022-12-14T00:36:57.839Z,56.45
2022-12-14T00:41:00.767Z,55.85
2022-12-14T00:45:05.532Z,57.50
2022-12-14T00:49:07.121Z,52.20
2022-12-14T00:53:09.741Z,51.78
2022-12-14T00:57:11.664Z,55.80
2022-12-14T01:01:13.947Z,56.28
2022-12-14T01:05:16.361Z,56.53
2022-12-14T01:09:20.140Z,57.95
2022-12-14T01:13:21.840Z,56.67
2022-12-14T01:17:23.829Z,56.55
2022-12-14T01:21:26.159Z,60.50
2022-12-14T01:25:28.447Z,56.67
2022-12-14T01:29:30.216Z,56.75
2022-12-14T01:33:32.187Z,56.00
2022-12-14T01:37:33.856Z,54.05
2022-12-14T01:41:39.188Z,57.15
2022-12-14T01:45:43.156Z,58.47
2022-12-14T01:49:54.613Z,53.22
2022-12-14T01:53:58.727Z,61.55
2022-12-14T01:58:18.698Z,59.38
2022-12-14T02:02:21.481Z,61.53
2022-12-14T02:06:30.433Z,59.17
2022-12-14T02:10:33.557Z,58.97
2022-12-14T02:14:36.007Z,63.08
2022-12-14T02:18:37.982Z,61.63
2022-12-14T02:23:10.572Z,60.25
2022-12-14T02:27:49.300Z,58.67
2022-12-14T02:32:02.568Z,61.95
2022-12-14T02:36:18.469Z,59.13
2022-12-14T02:40:45.048Z,59.63
2022-12-14T02:44:51.379Z,57.83
2022-12-14T02:49:03.308Z,57.30
2022-12-14T02:53:24.847Z,56.17
2022-12-14T02:57:47.277Z,56.60
2022-12-14T03:01:51.132Z,57.75
2022-12-14T03:06:14.801Z,58.40
2022-12-14T03:10:25.534Z,58.58
2022-12-14T03:14:40.053Z,63.22
2022-12-14T03:18:59.461Z,62.33
2022-12-14T03:23:04.753Z,61.25
2022-12-14T03:27:20.352Z,63.00
2022-12-14T03:31:40.151Z,60.83
2022-12-14T03:36:03.644Z,58.75
2022-12-14T03:40:11.870Z,67.40
2022-12-14T03:44:49.686Z,63.30
2022-12-14T03:48:56.302Z,64.28
2022-12-14T03:53:09.252Z,64.97
2022-12-14T03:57:43.239Z,65.28
2022-12-14T04:01:55.237Z,64.15
2022-12-14T04:06:08.108Z,67.18
2022-12-14T04:10:37.497Z,71.80
2022-12-14T04:15:05.676Z,67.32
2022-12-14T04:19:16.354Z,74.35
2022-12-14T04:23:42.994Z,76.78
2022-12-14T04:27:49.453Z,73.55
2022-12-14T04:31:57.717Z,75.38
2022-12-14T04:36:03.211Z,78.28
2022-12-14T04:40:11.142Z,84.28
2022-12-14T04:44:30.310Z,77.18
2022-12-14T04:48:39.624Z,76.88
2022-12-14T04:52:50.060Z,76.10
2022-12-14T04:57:03.765Z,74.18
2022-12-14T05:01:21.056Z,73.43
2022-12-14T05:05:50.289Z,72.18
2022-12-14T05:10:16.603Z,66.20
2022-12-14T05:14:26.916Z,74.68
2022-12-14T05:18:28.588Z,74.72
2022-12-14T05:22:30.675Z,75.10
2022-12-14T05:26:32.528Z,72.28
2022-12-14T05:30:34.548Z,79.03
2022-12-14T05:34:36.593Z,75.15
2022-12-14T05:38:38.266Z,72.18
2022-12-14T05:42:44.773Z,72.22
2022-12-14T05:46:48.202Z,76.45
2022-12-14T05:50:50.251Z,81.75
2022-12-14T05:54:51.973Z,77.70
2022-12-14T05:58:54.397Z,82.63
2022-12-14T06:02:56.107Z,79.25
2022-12-14T06:06:58.123Z,74.35
2022-12-14T06:11:08.588Z,76.80
2022-12-14T06:15:10.859Z,75.07
2022-12-14T06:19:14.738Z,81.60
2022-12-14T06:23:16.575Z,75.95
2022-12-14T06:27:18.709Z,83.97
2022-12-14T06:31:32.770Z,79.72
2022-12-14T06:35:34.435Z,82.35
2022-12-14T06:39:36.544Z,81.57
2022-12-14T06:43:38.580Z,79.93
2022-12-14T06:47:41.117Z,84.70
2022-12-14T06:51:43.817Z,82.95
2022-12-14T06:55:45.485Z,76.78
2022-12-14T06:59:51.333Z,74.03
2022-12-14T07:03:55.578Z,76.65
2022-12-14T07:07:57.247Z,69.07
2022-12-14T07:11:59.218Z,69.60
2022-12-14T07:16:01.612Z,69.28
2022-12-14T07:20:06.906Z,67.88
2022-12-14T07:24:08.974Z,66.47
2022-12-14T07:28:10.909Z,73.35
2022-12-14T07:32:12.971Z,69.75
2022-12-14T07:36:18.012Z,66.22
2022-12-14T07:40:19.709Z,69.32
2022-12-14T07:44:21.839Z,71.50
2022-12-14T07:48:23.543Z,75.35
2022-12-14T07:52:25.475Z,77.25
2022-12-14T07:56:30.798Z,76.78
2022-12-14T08:00:34.064Z,77.03
2022-12-14T08:04:40.328Z,78.07
2022-12-14T08:12:45.245Z,75.68
2022-12-14T08:16:49.056Z,79.88
2022-12-14T08:20:53.392Z,82.80
2022-12-14T08:24:55.663Z,80.60
2022-12-14T08:28:57.701Z,74.65
2022-12-14T08:33:00.245Z,73.40
2022-12-14T08:37:05.377Z,77.20
2022-12-14T08:41:14.392Z,79.53
2022-12-14T08:45:27.767Z,74.22
2022-12-14T08:49:32.422Z,74.68
2022-12-14T08:53:36.159Z,73.00
2022-12-14T08:57:37.931Z,74.80
2022-12-14T09:01:40.155Z,69.30
2022-12-14T09:05:42.072Z,69.97
2022-12-14T09:09:44.077Z,72.25
2022-12-14T09:13:46.698Z,68.18
2022-12-14T09:17:49.700Z,71.07
2022-12-14T09:21:51.617Z,66.10
2022-12-14T09:26:00.538Z,67.55
2022-12-14T09:30:02.176Z,69.47
2022-12-14T09:34:04.403Z,64.00
2022-12-14T09:38:06.134Z,65.28
2022-12-14T09:42:28.352Z,58.17
2022-12-14T09:46:51.733Z,59.92
2022-12-14T09:50:54.223Z,58.33
2022-12-14T09:54:58.381Z,55.08
2022-12-14T09:59:02.116Z,56.22
2022-12-14T10:03:32.713Z,55.25
2022-12-14T10:07:56.501Z,52.88
2022-12-14T10:12:14.030Z,49.30
2022-12-14T10:16:35.183Z,51.92
2022-12-14T10:20:50.661Z,50.80
2022-12-14T10:24:57.721Z,46.17
2022-12-14T10:29:05.096Z,51.80
2022-12-14T10:37:25.861Z,50.00
2022-12-14T10:41:56.708Z,50.67
2022-12-14T10:46:18.022Z,49.17
2022-12-14T10:50:33.938Z,48.30
2022-12-14T10:54:45.044Z,46.45
2022-12-14T10:59:18.538Z,47.20
2022-12-14T11:03:20.845Z,43.97
2022-12-14T11:07:26.286Z,47.45
2022-12-14T11:11:28.291Z,48.35
2022-12-14T11:15:52.503Z,44.35
2022-12-14T11:20:34.762Z,45.05
2022-12-14T11:24:45.528Z,42.95
2022-12-14T11:28:50.716Z,44.22
2022-12-14T11:32:52.557Z,38.00
2022-12-14T11:36:54.743Z,36.72
2022-12-14T11:40:57.269Z,37.53
2022-12-14T11:45:19.605Z,33.83
2022-12-14T11:49:36.297Z,33.30
2022-12-14T11:53:38.434Z,28.60
2022-12-14T11:57:46.553Z,30.77
2022-12-14T12:01:48.748Z,32.70
2022-12-14T12:05:51.376Z,30.25
2022-12-14T12:09:54.562Z,31.80
2022-12-14T12:14:01.700Z,28.85
2022-12-14T12:18:29.856Z,30.92
2022-12-14T12:22:33.691Z,31.35
2022-12-14T12:26:43.353Z,30.13
2022-12-14T12:30:57.067Z,29.77
2022-12-14T12:35:12.477Z,27.33
2022-12-14T12:39:17.034Z,31.02
2022-12-14T12:43:26.441Z,27.83
2022-12-14T12:47:47.136Z,29.08
2022-12-14T12:52:00.670Z,28.20
2022-12-14T12:56:15.372Z,30.48
2022-12-14T13:00:19.886Z,31.17
2022-12-14T13:04:35.788Z,32.63
2022-12-14T13:08:42.305Z,29.75
2022-12-14T13:12:51.462Z,32.05
2022-12-14T13:16:55.465Z,30.98
2022-12-14T13:20:57.527Z,31.40
2022-12-14T13:25:06.567Z,31.70
2022-12-14T13:29:33.972Z,35.85
2022-12-14T13:33:53.402Z,34.47
2022-12-14T13:38:05.506Z,33.70
2022-12-14T13:42:18.662Z,36.15
2022-12-14T13:46:23.955Z,33.22
2022-12-14T13:50:37.139Z,38.03
2022-12-14T13:54:40.462Z,37.13
2022-12-14T13:58:45.372Z,37.70
2022-12-14T14:02:53.828Z,38.17
2022-12-14T14:07:18.868Z,45.63
2022-12-14T14:11:39.419Z,48.28
2022-12-14T14:16:26.914Z,45.67
2022-12-14T14:20:39.478Z,50.38
2022-12-14T14:25:02.514Z,53.42
2022-12-14T14:29:27.046Z,56.47
2022-12-14T14:33:48.380Z,64.75
2022-12-14T14:38:00.997Z,83.25
2022-12-14T14:42:05.343Z,73.03
2022-12-14T14:46:09.742Z,64.50
2022-12-14T14:50:14.368Z,62.53
2022-12-14T14:54:36.992Z,63.78
2022-12-14T14:58:40.524Z,62.25
2022-12-14T15:02:43.205Z,65.55
2022-12-14T15:06:48.133Z,67.20
2022-12-14T15:10:50.393Z,64.97
2022-12-14T15:14:56.330Z,67.97
2022-12-14T15:19:23.235Z,65.38
2022-12-14T15:23:26.757Z,70.05
2022-12-14T15:27:32.689Z,64.10
2022-12-14T15:31:42.005Z,63.95
2022-12-14T15:35:45.858Z,61.83
2022-12-14T15:40:00.930Z,63.78
2022-12-14T15:44:02.865Z,58.63
2022-12-14T15:48:23.497Z,59.65
2022-12-14T15:52:30.003Z,56.45
2022-12-14T15:56:36.807Z,63.75
2022-12-14T16:00:43.861Z,57.22
2022-12-14T16:04:46.429Z,60.13
2022-12-14T16:08:54.136Z,60.15
2022-12-14T16:13:02.291Z,59.72
2022-12-14T16:17:04.776Z,58.55
2022-12-14T16:21:06.552Z,55.00
2022-12-14T16:25:08.448Z,55.13
2022-12-14T16:29:22.835Z,64.10
2022-12-14T16:33:25.440Z,63.05
2022-12-14T16:37:35.117Z,62.83
2022-12-14T16:41:41.068Z,64.28
2022-12-14T16:45:42.772Z,62.33
2022-12-14T16:49:48.044Z,59.92
2022-12-14T16:53:56.629Z,66.90
2022-12-14T16:57:58.831Z,65.05
2022-12-14T17:02:01.658Z,62.40
2022-12-14T17:06:06.389Z,60.88
2022-12-14T17:10:20.515Z,62.20
2022-12-14T17:14:22.234Z,58.17
2022-12-14T17:18:31.292Z,61.75
2022-12-14T17:22:33.525Z,57.05
2022-12-14T17:26:35.542Z,53.90
2022-12-14T17:30:37.375Z,58.25
2022-12-14T17:34:39.459Z,65.45
2022-12-14T17:38:48.221Z,64.30
2022-12-14T17:42:56.371Z,59.47
2022-12-14T17:46:58.119Z,59.40
2022-12-14T17:51:00.238Z,54.35
2022-12-14T17:55:02.029Z,54.05
2022-12-14T17:59:04.055Z,52.83
2022-12-14T18:03:06.783Z,52.88
2022-12-14T18:07:09.995Z,52.78
2022-12-14T18:11:19.230Z,50.67
2022-12-14T18:15:24.477Z,50.10
2022-12-14T18:19:26.485Z,51.47
2022-12-14T18:23:30.379Z,52.13
2022-12-14T18:27:32.414Z,53.10
2022-12-14T18:31:37.438Z,58.05
2022-12-14T18:35:39.435Z,52.70
2022-12-14T18:39:41.146Z,51.38
2022-12-14T18:43:44.076Z,55.67
2022-12-14T18:47:46.903Z,55.25
2022-12-14T18:51:48.961Z,51.00
2022-12-14T18:55:51.531Z,53.45
2022-12-14T18:59:54.709Z,48.78
2022-12-14T19:03:56.757Z,50.55
2022-12-14T19:08:00.274Z,50.10
2022-12-14T19:12:02.418Z,47.58
2022-12-14T19:16:07.117Z,49.60
2022-12-14T19:20:11.349Z,49.08
2022-12-14T19:24:14.560Z,46.85
2022-12-14T19:28:33.308Z,47.17
2022-12-14T19:32:35.641Z,49.80
2022-12-14T19:36:37.349Z,50.05
2022-12-14T19:40:39.594Z,49.13
2022-12-14T19:44:41.223Z,50.78
2022-12-14T19:48:44.356Z,49.80
2022-12-14T19:52:46.162Z,49.67
2022-12-14T19:56:52.041Z,49.35
2022-12-14T20:00:53.820Z,55.95
2022-12-14T20:04:55.758Z,55.33
2022-12-14T20:08:59.053Z,49.17
2022-12-14T20:13:01.109Z,51.38
2022-12-14T20:17:02.791Z,50.67
2022-12-14T20:21:08.244Z,49.67
2022-12-14T20:25:09.987Z,53.67
2022-12-14T20:29:11.988Z,57.55
2022-12-14T20:33:14.312Z,57.58
2022-12-14T20:37:16.296Z,52.70
2022-12-14T20:41:18.343Z,52.65
2022-12-14T20:45:20.445Z,50.42
2022-12-14T20:49:24.398Z,50.40
2022-12-14T20:53:27.585Z,49.78
2022-12-14T20:57:30.334Z,48.63
2022-12-14T21:01:32.520Z,49.55
2022-12-14T21:05:39.509Z,51.47
2022-12-14T21:09:41.502Z,42.53
2022-12-14T21:13:43.248Z,57.72
2022-12-14T21:17:45.219Z,52.33
2022-12-14T21:21:53.256Z,56.33
2022-12-14T21:25:55.807Z,59.33
2022-12-14T21:29:57.879Z,57.22
2022-12-14T21:33:59.547Z,66.20
2022-12-14T21:38:01.638Z,56.85
2022-12-14T21:42:13.324Z,56.78
2022-12-14T21:46:15.887Z,57.28
2022-12-14T21:50:18.017Z,49.45
2022-12-14T21:54:19.965Z,51.15
2022-12-14T21:58:24.327Z,47.63
2022-12-14T22:02:27.027Z,55.83
2022-12-14T22:06:29.422Z,51.22
2022-12-14T22:10:31.525Z,51.60
2022-12-14T22:14:33.261Z,48.17
2022-12-14T22:18:35.208Z,48.42
2022-12-14T22:22:36.879Z,47.95
2022-12-14T22:26:40.031Z,50.85
2022-12-14T22:30:41.747Z,51.83
2022-12-14T22:34:43.761Z,50.30
2022-12-14T22:38:45.476Z,48.50
2022-12-14T22:42:47.518Z,49.65
2022-12-14T22:46:50.008Z,47.65
2022-12-14T22:50:51.678Z,49.88
2022-12-14T22:54:54.363Z,49.60
2022-12-14T22:59:11.586Z,46.22
2022-12-14T23:03:13.419Z,47.58
2022-12-14T23:07:15.647Z,47.97
2022-12-14T23:11:36.133Z,53.53
2022-12-14T23:15:56.534Z,54.28
2022-12-14T23:20:16.754Z,49.90
2022-12-14T23:24:37.287Z,46.72
2022-12-14T23:28:58.030Z,46.72
2022-12-14T23:33:18.591Z,51.55
2022-12-14T23:37:38.859Z,48.78
2022-12-14T23:41:59.269Z,49.67
2022-12-14T23:46:20.549Z,49.38
2022-12-14T23:50:41.259Z,47.60
2022-12-14T23:55:01.298Z,46.40
2022-12-14T23:59:26.332Z,45.67
